createdAt,value
2023-02-15T00:02:01.169Z,100.00
2023-02-15T00:04:48.209Z,100.00
2023-02-15T00:07:19.516Z,100.00
2023-02-15T00:09:49.387Z,100.00
2023-02-15T00:12:18.825Z,100.00
2023-02-15T00:14:47.801Z,100.00
2023-02-15T00:17:16.771Z,100.00
2023-02-15T00:19:45.654Z,100.00
2023-02-15T00:22:15.012Z,100.00
2023-02-15T00:24:43.979Z,100.00
2023-02-15T00:27:12.890Z,100.00
2023-02-15T00:29:41.930Z,100.00
2023-02-15T00:32:11.274Z,100.00
2023-02-15T00:34:40.343Z,100.00
2023-02-15T00:37:10.015Z,100.00
2023-02-15T00:39:39.001Z,100.00
2023-02-15T00:42:08.338Z,100.00
2023-02-15T00:44:37.334Z,100.00
2023-02-15T00:47:06.256Z,100.00
2023-02-15T00:49:36.580Z,100.00
2023-02-15T00:52:05.787Z,100.00
2023-02-15T00:54:36.364Z,100.00
2023-02-15T00:57:05.834Z,100.00
2023-02-15T00:59:34.768Z,100.00
2023-02-15T01:02:03.861Z,100.00
2023-02-15T01:04:34.903Z,100.00
2023-02-15T01:07:05.359Z,100.00
2023-02-15T01:09:35.648Z,100.00
2023-02-15T01:12:05.512Z,100.00
2023-02-15T01:14:34.557Z,100.00
2023-02-15T01:17:04.008Z,100.00
2023-02-15T01:19:36.397Z,100.00
2023-02-15T01:22:05.601Z,100.00
2023-02-15T01:24:39.666Z,100.00
2023-02-15T01:27:08.654Z,100.00
2023-02-15T01:29:37.598Z,100.00
2023-02-15T01:32:06.720Z,100.00
2023-02-15T01:34:36.004Z,100.00
2023-02-15T01:37:05.091Z,100.00
2023-02-15T01:39:34.225Z,100.00
2023-02-15T01:42:03.273Z,100.00
2023-02-15T01:44:57.850Z,100.00
2023-02-15T01:47:43.235Z,100.00
2023-02-15T01:50:47.934Z,100.00
2023-02-15T01:56:33.177Z,100.00
2023-02-15T01:59:08.401Z,100.00
2023-02-15T02:01:37.822Z,100.00
2023-02-15T02:04:37.388Z,100.00
2023-02-15T02:07:10.525Z,100.00
2023-02-15T02:09:40.682Z,100.00
2023-02-15T02:12:11.053Z,100.00
2023-02-15T02:14:44.152Z,100.00
2023-02-15T02:17:21.537Z,100.00
2023-02-15T02:20:08.633Z,100.00
2023-02-15T02:22:40.372Z,100.00
2023-02-15T02:25:43.576Z,100.00
2023-02-15T02:28:27.723Z,100.00
2023-02-15T02:31:30.661Z,100.00
2023-02-15T02:34:11.875Z,100.00
2023-02-15T02:36:58.088Z,100.00
2023-02-15T02:40:16.654Z,100.00
2023-02-15T02:42:58.234Z,100.00
2023-02-15T02:45:51.001Z,100.00
2023-02-15T02:48:38.046Z,100.00
2023-02-15T02:54:48.440Z,100.00
2023-02-15T02:57:25.594Z,100.00
2023-02-15T03:00:10.426Z,100.00
2023-02-15T03:02:44.077Z,100.00
2023-02-15T03:05:18.880Z,100.00
2023-02-15T03:07:54.312Z,100.00
2023-02-15T03:10:35.236Z,100.00
2023-02-15T03:13:08.487Z,100.00
2023-02-15T03:16:05.107Z,100.00
2023-02-15T03:18:44.359Z,100.00
2023-02-15T03:21:23.840Z,100.00
2023-02-15T03:24:00.446Z,100.00
2023-02-15T03:26:39.538Z,100.00
2023-02-15T03:29:23.302Z,100.00
2023-02-15T03:32:03.321Z,100.00
2023-02-15T03:34:38.854Z,100.00
2023-02-15T03:37:37.536Z,100.00
2023-02-15T03:41:03.841Z,100.00
2023-02-15T03:43:46.813Z,100.00
2023-02-15T03:52:07.314Z,100.00
2023-02-15T03:54:38.976Z,100.00
2023-02-15T03:57:29.833Z,100.00
2023-02-15T04:00:32.439Z,100.00
2023-02-15T04:03:35.241Z,100.00
2023-02-15T04:06:11.554Z,100.00
2023-02-15T04:09:10.640Z,100.00
2023-02-15T04:11:39.674Z,100.00
2023-02-15T04:14:27.028Z,100.00
2023-02-15T04:16:56.326Z,100.00
2023-02-15T04:20:11.267Z,100.00
2023-02-15T04:23:14.360Z,100.00
2023-02-15T04:28:51.412Z,100.00
2023-02-15T04:31:20.918Z,100.00
2023-02-15T04:34:58.601Z,100.00
2023-02-15T04:37:28.058Z,100.00
2023-02-15T04:40:02.218Z,100.00
2023-02-15T04:43:02.595Z,100.00
2023-02-15T04:45:33.910Z,100.00
2023-02-15T04:48:03.312Z,100.00
2023-02-15T04:50:35.396Z,100.00
2023-02-15T04:53:10.100Z,100.00
2023-02-15T04:55:52.662Z,100.00
2023-02-15T04:58:22.055Z,100.00
2023-02-15T05:00:57.220Z,100.00
2023-02-15T05:03:29.448Z,100.00
2023-02-15T05:05:58.455Z,100.00
2023-02-15T05:08:27.405Z,100.00
2023-02-15T05:10:56.660Z,100.00
2023-02-15T05:13:25.824Z,100.00
2023-02-15T05:15:55.475Z,100.00
2023-02-15T05:18:24.814Z,100.00
2023-02-15T05:20:54.092Z,100.00
2023-02-15T05:23:28.823Z,100.00
2023-02-15T05:29:04.639Z,100.00
2023-02-15T05:31:34.968Z,100.00
2023-02-15T05:34:05.331Z,100.00
2023-02-15T05:36:35.416Z,100.00
2023-02-15T05:39:07.665Z,100.00
2023-02-15T05:41:36.882Z,100.00
2023-02-15T05:44:06.404Z,100.00
2023-02-15T05:46:35.293Z,100.00
2023-02-15T05:49:04.388Z,100.00
2023-02-15T05:51:34.468Z,100.00
2023-02-15T05:54:03.614Z,100.00
2023-02-15T05:56:33.385Z,100.00
2023-02-15T05:59:02.392Z,100.00
2023-02-15T06:01:35.626Z,100.00
2023-02-15T06:04:09.076Z,100.00
2023-02-15T06:06:38.593Z,100.00
2023-02-15T06:09:07.722Z,100.00
2023-02-15T06:11:36.735Z,100.00
2023-02-15T06:14:06.040Z,100.00
2023-02-15T06:16:35.687Z,100.00
2023-02-15T06:19:05.308Z,100.00
2023-02-15T06:21:34.316Z,100.00
2023-02-15T06:24:03.358Z,100.00
2023-02-15T06:26:32.339Z,100.00
2023-02-15T06:29:01.255Z,100.00
2023-02-15T06:31:30.402Z,100.00
2023-02-15T06:34:02.839Z,100.00
2023-02-15T06:36:34.867Z,100.00
2023-02-15T06:39:04.921Z,100.00
2023-02-15T06:41:36.302Z,100.00
2023-02-15T06:44:05.754Z,100.00
2023-02-15T06:46:34.964Z,100.00
2023-02-15T06:49:03.992Z,100.00
2023-02-15T06:51:32.927Z,100.00
2023-02-15T06:54:03.380Z,100.00
2023-02-15T06:56:32.355Z,100.00
2023-02-15T06:59:01.334Z,100.00
2023-02-15T07:01:30.442Z,100.00
2023-02-15T07:03:59.608Z,100.00
2023-02-15T07:06:35.740Z,100.00
2023-02-15T07:09:06.277Z,100.00
2023-02-15T07:11:59.182Z,100.00
2023-02-15T07:14:29.035Z,100.00
2023-02-15T07:16:58.082Z,100.00
2023-02-15T07:19:27.066Z,100.00
2023-02-15T07:21:56.022Z,100.00
2023-02-15T07:24:26.094Z,100.00
2023-02-15T07:26:56.918Z,100.00
2023-02-15T07:29:28.428Z,100.00
2023-02-15T07:31:57.598Z,100.00
2023-02-15T07:34:26.583Z,100.00
2023-02-15T07:36:56.903Z,100.00
2023-02-15T07:39:26.730Z,100.00
2023-02-15T07:41:56.353Z,100.00
2023-02-15T07:44:29.498Z,100.00
2023-02-15T07:46:58.398Z,100.00
2023-02-15T07:49:27.331Z,100.00
2023-02-15T07:51:56.465Z,100.00
2023-02-15T07:54:26.496Z,100.00
2023-02-15T07:56:55.419Z,100.00
2023-02-15T07:59:24.530Z,100.00
2023-02-15T08:01:55.828Z,100.00
2023-02-15T08:04:25.265Z,100.00
2023-02-15T08:06:57.340Z,100.00
2023-02-15T08:09:27.378Z,100.00
2023-02-15T08:11:56.661Z,100.00
2023-02-15T08:14:25.520Z,100.00
2023-02-15T08:17:01.292Z,100.00
2023-02-15T08:19:33.562Z,100.00
2023-02-15T08:22:14.333Z,100.00
2023-02-15T08:24:43.461Z,100.00
2023-02-15T08:27:28.486Z,100.00
2023-02-15T08:29:58.967Z,100.00
2023-02-15T08:32:27.948Z,100.00
2023-02-15T08:34:58.566Z,100.00
2023-02-15T08:37:28.194Z,100.00
2023-02-15T08:39:57.093Z,100.00
2023-02-15T08:42:25.973Z,100.00
2023-02-15T08:44:56.900Z,100.00
2023-02-15T08:47:25.844Z,100.00
2023-02-15T08:49:54.868Z,100.00
2023-02-15T08:52:24.021Z,100.00
2023-02-15T08:54:53.304Z,100.00
2023-02-15T08:57:22.601Z,100.00
2023-02-15T08:59:52.726Z,100.00
2023-02-15T09:02:22.767Z,100.00
2023-02-15T09:04:51.687Z,100.00
2023-02-15T09:07:21.467Z,100.00
2023-02-15T09:09:50.614Z,100.00
2023-02-15T09:12:19.630Z,100.00
2023-02-15T09:14:48.745Z,100.00
2023-02-15T09:17:17.717Z,100.00
2023-02-15T09:19:46.685Z,100.00
2023-02-15T09:22:15.711Z,100.00
2023-02-15T09:24:44.661Z,100.00
2023-02-15T09:27:16.542Z,100.00
2023-02-15T09:29:45.765Z,100.00
2023-02-15T09:32:16.889Z,100.00
2023-02-15T09:34:45.933Z,100.00
2023-02-15T09:37:15.061Z,100.00
2023-02-15T09:39:46.093Z,100.00
2023-02-15T09:42:18.766Z,100.00
2023-02-15T09:45:29.630Z,100.00
2023-02-15T09:48:08.155Z,100.00
2023-02-15T09:51:18.407Z,100.00
2023-02-15T09:53:52.806Z,100.00
2023-02-15T09:56:28.131Z,100.00
2023-02-15T09:59:18.127Z,100.00
2023-02-15T10:02:16.965Z,100.00
2023-02-15T10:05:04.208Z,100.00
2023-02-15T10:07:51.535Z,100.00
2023-02-15T10:10:36.037Z,100.00
2023-02-15T10:13:27.618Z,100.00
2023-02-15T10:16:15.675Z,100.00
2023-02-15T10:18:56.265Z,100.00
2023-02-15T10:21:48.879Z,100.00
2023-02-15T10:24:42.116Z,100.00
2023-02-15T10:27:23.266Z,100.00
2023-02-15T10:30:13.829Z,100.00
2023-02-15T10:33:38.240Z,100.00
2023-02-15T10:36:28.393Z,100.00
2023-02-15T10:39:33.356Z,100.00
2023-02-15T10:42:44.902Z,100.00
2023-02-15T10:45:46.350Z,100.00
2023-02-15T10:48:38.635Z,100.00
2023-02-15T10:51:18.271Z,100.00
2023-02-15T10:54:04.324Z,100.00
2023-02-15T10:56:48.672Z,100.00
2023-02-15T10:59:26.468Z,100.00
2023-02-15T11:02:23.354Z,100.00
2023-02-15T11:05:29.248Z,100.00
2023-02-15T11:08:02.272Z,100.00
2023-02-15T11:10:38.978Z,100.00
2023-02-15T11:13:15.523Z,100.00
2023-02-15T11:16:12.901Z,100.00
2023-02-15T11:18:49.182Z,100.00
2023-02-15T11:21:40.759Z,100.00
2023-02-15T11:24:15.531Z,100.00
2023-02-15T11:26:58.498Z,100.00
2023-02-15T11:29:35.921Z,100.00
2023-02-15T11:32:19.907Z,100.00
2023-02-15T11:35:17.854Z,100.00
2023-02-15T11:37:49.236Z,100.00
2023-02-15T11:40:25.241Z,100.00
2023-02-15T11:42:58.217Z,100.00
2023-02-15T11:45:32.626Z,100.00
2023-02-15T11:48:03.013Z,100.00
2023-02-15T11:50:34.491Z,100.00
2023-02-15T11:53:26.615Z,100.00
2023-02-15T11:55:57.123Z,100.00
2023-02-15T11:58:43.945Z,100.00
2023-02-15T12:01:31.048Z,100.00
2023-02-15T12:04:27.976Z,100.00
2023-02-15T12:07:02.941Z,100.00
2023-02-15T12:10:15.927Z,100.00
2023-02-15T12:12:48.776Z,100.00
2023-02-15T12:15:34.175Z,100.00
2023-02-15T12:18:03.711Z,100.00
2023-02-15T12:20:36.852Z,100.00
2023-02-15T12:23:13.917Z,100.00
2023-02-15T12:25:57.596Z,100.00
2023-02-15T12:28:29.088Z,100.00
2023-02-15T12:30:59.674Z,100.00
2023-02-15T12:33:47.524Z,100.00
2023-02-15T12:36:21.475Z,100.00
2023-02-15T12:39:19.523Z,100.00
2023-02-15T12:42:19.036Z,100.00
2023-02-15T12:45:23.541Z,100.00
2023-02-15T12:48:16.040Z,100.00
2023-02-15T12:50:57.185Z,100.00
2023-02-15T12:53:37.629Z,100.00
2023-02-15T12:56:09.652Z,100.00
2023-02-15T12:58:41.397Z,100.00
2023-02-15T13:01:18.437Z,100.00
2023-02-15T13:04:22.411Z,100.00
2023-02-15T13:06:58.215Z,100.00
2023-02-15T13:09:33.360Z,100.00
2023-02-15T13:12:33.948Z,100.00
2023-02-15T13:15:06.608Z,100.00
2023-02-15T13:17:36.548Z,100.00
2023-02-15T13:20:11.939Z,100.00
2023-02-15T13:22:47.533Z,100.00
2023-02-15T13:25:29.067Z,100.00
2023-02-15T13:28:03.005Z,100.00
2023-02-15T13:30:40.101Z,100.00
2023-02-15T13:33:33.527Z,100.00
2023-02-15T13:36:16.376Z,100.00
2023-02-15T13:39:20.878Z,100.00
2023-02-15T13:41:55.871Z,100.00
2023-02-15T13:44:53.292Z,100.00
2023-02-15T13:48:06.255Z,100.00
2023-02-15T13:50:41.250Z,100.00
2023-02-15T13:53:28.651Z,100.00
2023-02-15T13:56:06.700Z,100.00
2023-02-15T13:58:50.467Z,100.00
2023-02-15T14:01:52.193Z,100.00
2023-02-15T14:04:38.895Z,100.00
2023-02-15T14:07:44.299Z,100.00
2023-02-15T14:10:36.892Z,100.00
2023-02-15T14:13:43.189Z,100.00
2023-02-15T14:16:17.780Z,100.00
2023-02-15T14:19:14.744Z,100.00
2023-02-15T14:22:02.589Z,100.00
2023-02-15T14:24:49.845Z,100.00
2023-02-15T14:27:18.908Z,100.00
2023-02-15T14:29:53.973Z,100.00
2023-02-15T14:32:44.278Z,100.00
2023-02-15T14:35:25.959Z,100.00
2023-02-15T14:38:20.119Z,100.00
2023-02-15T14:41:09.022Z,100.00
2023-02-15T14:43:43.656Z,100.00
2023-02-15T14:46:48.192Z,100.00
2023-02-15T14:49:35.337Z,100.00
2023-02-15T14:52:12.405Z,100.00
2023-02-15T14:54:41.581Z,100.00
2023-02-15T14:57:13.830Z,100.00
2023-02-15T15:00:00.176Z,100.00
2023-02-15T15:02:54.237Z,100.00
2023-02-15T15:05:35.716Z,100.00
2023-02-15T15:08:06.925Z,100.00
2023-02-15T15:10:45.254Z,100.00
2023-02-15T15:13:32.738Z,100.00
2023-02-15T15:16:19.642Z,100.00
2023-02-15T15:18:51.221Z,100.00
2023-02-15T15:21:50.680Z,100.00
2023-02-15T15:24:41.374Z,100.00
2023-02-15T15:27:50.416Z,100.00
2023-02-15T15:30:25.292Z,100.00
2023-02-15T15:32:57.255Z,100.00
2023-02-15T15:36:03.324Z,100.00
2023-02-15T15:38:57.088Z,100.00
2023-02-15T15:41:44.928Z,100.00
2023-02-15T15:44:32.701Z,100.00
2023-02-15T15:47:16.028Z,100.00
2023-02-15T15:49:48.686Z,100.00
2023-02-15T15:52:20.465Z,100.00
2023-02-15T15:54:55.516Z,100.00
2023-02-15T15:57:37.014Z,100.00
2023-02-15T16:00:27.018Z,100.00
2023-02-15T16:02:59.803Z,100.00
2023-02-15T16:05:40.765Z,100.00
2023-02-15T16:08:38.915Z,100.00
2023-02-15T16:11:26.330Z,100.00
2023-02-15T16:13:56.601Z,100.00
2023-02-15T16:16:30.872Z,100.00
2023-02-15T16:19:04.361Z,100.00
2023-02-15T16:21:36.720Z,100.00
2023-02-15T16:24:23.936Z,100.00
2023-02-15T16:27:08.192Z,100.00
2023-02-15T16:29:40.612Z,100.00
2023-02-15T16:32:37.186Z,100.00
2023-02-15T16:35:20.898Z,100.00
2023-02-15T16:37:49.929Z,100.00
2023-02-15T16:40:28.359Z,100.00
2023-02-15T16:43:02.140Z,100.00
2023-02-15T16:45:34.137Z,100.00
2023-02-15T16:48:09.898Z,100.00
2023-02-15T16:50:40.408Z,100.00
2023-02-15T16:53:19.521Z,100.00
2023-02-15T16:55:53.215Z,100.00
2023-02-15T16:58:30.858Z,100.00
2023-02-15T17:01:02.245Z,100.00
2023-02-15T17:03:31.806Z,100.00
2023-02-15T17:06:05.329Z,100.00
2023-02-15T17:08:48.950Z,100.00
2023-02-15T17:11:36.272Z,100.00
2023-02-15T17:14:10.542Z,100.00
2023-02-15T17:16:52.622Z,100.00
2023-02-15T17:19:25.001Z,100.00
2023-02-15T17:22:00.112Z,100.00
2023-02-15T17:24:46.618Z,100.00
2023-02-15T17:27:25.863Z,100.00
2023-02-15T17:29:59.940Z,100.00
2023-02-15T17:32:32.009Z,100.00
2023-02-15T17:35:09.995Z,100.00
2023-02-15T17:37:41.094Z,100.00
2023-02-15T17:40:22.971Z,100.00
2023-02-15T17:42:52.377Z,100.00
2023-02-15T17:45:22.831Z,100.00
2023-02-15T17:47:52.371Z,100.00
2023-02-15T17:50:26.594Z,100.00
2023-02-15T17:52:57.519Z,100.00
2023-02-15T17:55:36.199Z,100.00
2023-02-15T17:58:16.981Z,100.00
2023-02-15T18:01:08.525Z,100.00
2023-02-15T18:04:10.315Z,100.00
2023-02-15T18:06:59.714Z,100.00
2023-02-15T18:09:49.706Z,100.00
2023-02-15T18:12:31.479Z,100.00
2023-02-15T18:15:01.462Z,100.00
2023-02-15T18:17:33.940Z,100.00
2023-02-15T18:20:18.911Z,100.00
2023-02-15T18:22:48.447Z,100.00
2023-02-15T18:25:20.463Z,100.00
2023-02-15T18:27:54.566Z,100.00
2023-02-15T18:30:34.549Z,100.00
2023-02-15T18:33:04.182Z,100.00
2023-02-15T18:35:36.776Z,100.00
2023-02-15T18:38:05.906Z,100.00
2023-02-15T18:40:35.177Z,100.00
2023-02-15T18:43:04.351Z,100.00
2023-02-15T18:45:38.043Z,100.00
2023-02-15T18:48:09.244Z,100.00
2023-02-15T18:50:42.629Z,100.00
2023-02-15T18:53:21.757Z,100.00
2023-02-15T18:55:54.334Z,100.00
2023-02-15T18:58:43.807Z,100.00
2023-02-15T19:01:32.563Z,100.00
2023-02-15T19:04:10.278Z,100.00
2023-02-15T19:06:49.200Z,100.00
2023-02-15T19:09:29.946Z,100.00
2023-02-15T19:12:00.757Z,100.00
2023-02-15T19:14:35.303Z,100.00
2023-02-15T19:17:05.223Z,100.00
2023-02-15T19:19:35.465Z,100.00
2023-02-15T19:22:04.777Z,100.00
2023-02-15T19:24:48.196Z,100.00
2023-02-15T19:30:57.591Z,100.00
2023-02-15T19:33:27.309Z,100.00
2023-02-15T19:38:54.883Z,100.00
2023-02-15T19:41:34.212Z,100.00
2023-02-15T19:44:03.198Z,100.00
2023-02-15T19:46:35.654Z,100.00
2023-02-15T19:49:05.403Z,100.00
2023-02-15T19:51:35.002Z,100.00
2023-02-15T19:54:04.027Z,100.00
2023-02-15T19:56:33.196Z,100.00
2023-02-15T19:59:03.528Z,100.00
2023-02-15T20:01:37.843Z,100.00
2023-02-15T20:04:06.803Z,100.00
2023-02-15T20:06:38.271Z,100.00
2023-02-15T20:09:24.247Z,100.00
2023-02-15T20:11:58.889Z,100.00
2023-02-15T20:14:31.227Z,100.00
2023-02-15T20:17:03.587Z,100.00
2023-02-15T20:19:32.556Z,100.00
2023-02-15T20:22:02.703Z,100.00
2023-02-15T20:24:35.695Z,100.00
2023-02-15T20:27:08.652Z,100.00
2023-02-15T20:29:44.029Z,100.00
2023-02-15T20:32:16.949Z,100.00
2023-02-15T20:34:52.988Z,100.00
2023-02-15T20:37:34.044Z,100.00
2023-02-15T20:40:04.745Z,100.00
2023-02-15T20:42:37.268Z,100.00
2023-02-15T20:45:21.963Z,100.00
2023-02-15T20:47:58.839Z,100.00
2023-02-15T20:50:31.997Z,100.00
2023-02-15T20:53:39.280Z,100.00
2023-02-15T20:56:38.417Z,100.00
2023-02-15T20:59:27.680Z,100.00
2023-02-15T21:02:05.357Z,92.83
2023-02-15T21:04:42.633Z,98.35
2023-02-15T21:07:20.457Z,100.00
2023-02-15T21:09:50.013Z,100.00
2023-02-15T21:12:36.452Z,100.00
2023-02-15T21:15:36.215Z,100.00
2023-02-15T21:18:08.023Z,100.00
2023-02-15T21:20:38.239Z,100.00
2023-02-15T21:23:07.536Z,98.10
2023-02-15T21:25:42.174Z,93.61
2023-02-15T21:28:22.014Z,100.00
2023-02-15T21:30:58.328Z,87.00
2023-02-15T21:33:28.320Z,88.75
2023-02-15T21:36:20.568Z,96.59
2023-02-15T21:38:58.256Z,98.64
2023-02-15T21:41:46.901Z,100.00
2023-02-15T21:44:43.740Z,89.97
2023-02-15T21:47:49.392Z,100.00
2023-02-15T21:50:42.477Z,87.13
2023-02-15T21:53:17.610Z,91.55
2023-02-15T21:59:21.293Z,87.78
2023-02-15T22:01:54.308Z,95.50
2023-02-15T22:04:36.144Z,88.03
2023-02-15T22:07:12.887Z,82.88
2023-02-15T22:10:17.907Z,86.68
2023-02-15T22:16:08.166Z,89.84
2023-02-15T22:18:42.406Z,85.67
2023-02-15T22:21:38.909Z,82.97
2023-02-15T22:24:29.812Z,83.95
2023-02-15T22:27:02.361Z,80.59
2023-02-15T22:29:40.005Z,81.69
2023-02-15T22:32:46.231Z,79.72
2023-02-15T22:35:35.474Z,81.07
2023-02-15T22:38:18.559Z,85.14
2023-02-15T22:41:27.206Z,80.24
2023-02-15T22:44:37.355Z,90.77
2023-02-15T22:47:06.982Z,97.75
2023-02-15T22:49:42.038Z,100.00
2023-02-15T22:52:15.262Z,100.00
2023-02-15T22:54:57.502Z,100.00
2023-02-15T22:57:40.166Z,99.28
2023-02-15T23:00:17.190Z,89.96
2023-02-15T23:02:55.251Z,89.31
2023-02-15T23:05:37.337Z,94.79
2023-02-15T23:08:09.821Z,92.14
2023-02-15T23:10:41.009Z,87.98
2023-02-15T23:13:35.112Z,92.19
2023-02-15T23:16:18.400Z,90.75
2023-02-15T23:19:23.385Z,92.81
2023-02-15T23:21:57.849Z,92.08
2023-02-15T23:24:38.878Z,85.94
2023-02-15T23:27:41.806Z,89.31
2023-02-15T23:30:18.215Z,99.58
2023-02-15T23:33:13.165Z,99.74
2023-02-15T23:35:45.497Z,95.51
2023-02-15T23:38:26.249Z,87.02
2023-02-15T23:41:20.252Z,94.89
2023-02-15T23:44:07.618Z,94.11
2023-02-15T23:46:55.465Z,100.00
2023-02-15T23:49:27.307Z,97.71
2023-02-15T23:52:01.056Z,87.03
2023-02-15T23:54:32.552Z,99.08
2023-02-15T23:57:03.118Z,100.00
2023-02-15T23:59:33.710Z,100.00
